createdAt,value
2018-01-31T01:52:20.408Z,42.80
2018-01-31T01:53:18.571Z,47.10
2018-01-31T01:55:45.878Z,47.10
2018-01-31T01:58:12.487Z,47.00
2018-01-31T02:00:39.170Z,47.30
2018-01-31T02:03:06.534Z,47.60
2018-01-31T02:05:33.194Z,47.40
2018-01-31T02:07:59.814Z,47.20
2018-01-31T02:10:27.135Z,47.60
2018-01-31T02:12:53.718Z,47.50
2018-01-31T02:15:20.333Z,47.50
2018-01-31T02:17:46.942Z,47.70
2018-01-31T02:20:13.599Z,47.90
2018-01-31T02:22:40.261Z,48.00
2018-01-31T02:25:06.902Z,48.30
2018-01-31T02:27:34.233Z,48.50
2018-01-31T02:30:00.831Z,48.50
2018-01-31T02:32:27.443Z,48.70
2018-01-31T02:34:54.078Z,48.90
2018-01-31T02:37:20.683Z,48.70
2018-01-31T02:39:57.126Z,49.10
2018-01-31T02:42:23.730Z,49.10
2018-01-31T02:44:50.444Z,49.50
2018-01-31T02:47:17.017Z,49.30
2018-01-31T02:49:43.645Z,49.50
2018-01-31T02:52:10.246Z,49.50
2018-01-31T02:54:36.843Z,49.40
2018-01-31T02:57:03.471Z,49.80
2018-01-31T02:59:30.072Z,50.00
2018-01-31T03:01:57.405Z,50.10
2018-01-31T03:04:24.795Z,50.20
2018-01-31T03:06:51.471Z,50.20
2018-01-31T03:09:18.088Z,50.30
2018-01-31T03:11:44.683Z,50.60
2018-01-31T03:14:12.029Z,50.60
2018-01-31T03:16:38.694Z,50.40
2018-01-31T03:19:05.335Z,50.50
2018-01-31T03:21:31.973Z,50.30
2018-01-31T03:23:58.578Z,50.30
2018-01-31T03:26:25.920Z,51.00
2018-01-31T03:28:53.282Z,50.90
2018-01-31T03:31:19.916Z,50.90
2018-01-31T03:33:47.262Z,51.10
2018-01-31T03:36:13.906Z,51.80
2018-01-31T03:38:41.265Z,50.90
2018-01-31T03:41:07.878Z,50.90
2018-01-31T03:43:34.597Z,50.90
2018-01-31T03:46:01.182Z,51.00
2018-01-31T03:48:28.523Z,50.60
2018-01-31T03:50:55.948Z,50.90
2018-01-31T03:53:22.545Z,50.90
2018-01-31T03:55:49.184Z,50.50
2018-01-31T03:58:16.494Z,50.80
2018-01-31T04:00:43.180Z,50.70
2018-01-31T04:03:10.538Z,51.50
2018-01-31T04:05:37.896Z,50.90
2018-01-31T04:08:04.563Z,50.70
2018-01-31T04:10:31.373Z,50.70
2018-01-31T04:12:58.780Z,49.80
2018-01-31T04:15:25.365Z,49.70
2018-01-31T04:17:52.704Z,49.60
2018-01-31T04:20:20.078Z,49.80
2018-01-31T04:22:47.421Z,49.70
2018-01-31T04:25:14.016Z,49.70
2018-01-31T04:27:40.611Z,49.70
2018-01-31T04:30:07.222Z,49.80
2018-01-31T04:32:34.658Z,49.80
2018-01-31T04:35:01.274Z,49.80
2018-01-31T04:37:27.899Z,49.80
2018-01-31T04:39:54.510Z,49.70
2018-01-31T04:42:21.106Z,49.40
2018-01-31T04:44:47.718Z,49.50
2018-01-31T04:47:14.342Z,49.50
2018-01-31T04:49:40.966Z,49.40
2018-01-31T04:52:07.537Z,49.20
2018-01-31T04:54:34.891Z,49.00
2018-01-31T04:57:01.522Z,48.90
2018-01-31T04:59:28.114Z,49.00
2018-01-31T05:01:55.461Z,48.70
2018-01-31T05:04:22.852Z,48.60
2018-01-31T05:06:49.514Z,48.60
2018-01-31T05:09:16.145Z,48.40
2018-01-31T05:11:42.737Z,48.30
2018-01-31T05:14:09.385Z,48.40
2018-01-31T05:16:36.068Z,48.10
2018-01-31T05:19:02.694Z,48.20
2018-01-31T05:21:29.348Z,48.00
2018-01-31T05:23:55.954Z,47.70
2018-01-31T05:26:22.569Z,47.30
2018-01-31T05:28:49.192Z,47.60
2018-01-31T05:31:16.676Z,47.40
2018-01-31T05:33:43.470Z,47.40
2018-01-31T05:36:10.582Z,47.20
2018-01-31T05:38:37.540Z,47.20
2018-01-31T05:41:04.174Z,46.70
2018-01-31T05:43:31.471Z,46.60
2018-01-31T05:45:58.154Z,46.60
2018-01-31T05:48:24.752Z,46.60
2018-01-31T05:50:52.125Z,46.80
2018-01-31T05:53:18.706Z,46.70
2018-01-31T05:55:45.266Z,46.60
2018-01-31T05:58:11.877Z,46.80
2018-01-31T06:00:38.483Z,47.00
2018-01-31T06:03:05.086Z,47.20
2018-01-31T06:05:31.879Z,47.20
2018-01-31T06:07:58.445Z,47.40
2018-01-31T06:10:25.093Z,47.40
2018-01-31T06:12:52.517Z,47.50
2018-01-31T06:15:19.147Z,47.50
2018-01-31T06:17:45.802Z,47.60
2018-01-31T06:20:12.383Z,47.70
2018-01-31T06:22:39.035Z,47.70
2018-01-31T06:25:05.655Z,47.60
2018-01-31T06:27:33.058Z,47.50
2018-01-31T06:29:59.654Z,47.40
2018-01-31T06:32:26.245Z,47.70
2018-01-31T06:34:53.059Z,47.70
2018-01-31T06:37:19.691Z,47.90
2018-01-31T06:39:46.264Z,47.80
2018-01-31T06:42:13.641Z,47.70
2018-01-31T06:44:41.037Z,47.90
2018-01-31T06:47:07.687Z,47.80
2018-01-31T06:49:34.468Z,48.10
2018-01-31T06:52:01.808Z,48.20
2018-01-31T06:54:29.218Z,48.20
2018-01-31T06:56:55.835Z,48.30
2018-01-31T06:59:22.461Z,48.50
2018-01-31T07:01:49.889Z,48.40
2018-01-31T07:04:16.462Z,48.40
2018-01-31T07:06:43.067Z,48.40
2018-01-31T07:09:09.669Z,48.50
2018-01-31T07:11:36.303Z,48.70
2018-01-31T07:14:02.903Z,48.70
2018-01-31T07:16:30.263Z,49.10
2018-01-31T07:18:57.632Z,49.30
2018-01-31T07:21:24.298Z,49.30
2018-01-31T07:23:50.939Z,50.30
2018-01-31T07:26:17.526Z,49.50
2018-01-31T07:28:44.118Z,49.80
2018-01-31T07:31:10.721Z,50.10
2018-01-31T07:33:37.274Z,50.60
2018-01-31T07:36:03.905Z,50.80
2018-01-31T07:38:30.518Z,50.90
2018-01-31T07:40:57.122Z,50.80
2018-01-31T07:43:23.744Z,50.50
2018-01-31T07:45:50.346Z,50.60
2018-01-31T07:48:17.547Z,50.30
2018-01-31T07:50:44.136Z,50.00
2018-01-31T07:53:10.723Z,49.90
2018-01-31T07:55:37.357Z,49.60
2018-01-31T07:58:03.958Z,49.60
2018-01-31T08:00:30.600Z,49.90
2018-01-31T08:02:57.244Z,49.90
2018-01-31T08:05:23.915Z,49.80
2018-01-31T08:07:51.302Z,48.50
2018-01-31T08:10:17.919Z,48.50
2018-01-31T08:12:45.243Z,47.30
2018-01-31T08:15:11.854Z,47.30
2018-01-31T08:17:38.434Z,47.10
2018-01-31T08:20:05.014Z,46.90
2018-01-31T08:22:31.723Z,46.50
2018-01-31T08:24:58.433Z,47.00
2018-01-31T08:27:25.070Z,46.60
2018-01-31T08:29:51.674Z,46.40
2018-01-31T08:32:18.254Z,46.20
2018-01-31T08:34:44.858Z,45.70
2018-01-31T08:37:11.471Z,45.10
2018-01-31T08:39:38.092Z,42.00
2018-01-31T08:42:05.413Z,38.60
2018-01-31T08:44:32.027Z,38.50
2018-01-31T08:46:58.646Z,40.00
2018-01-31T08:49:25.393Z,42.60
2018-01-31T08:51:52.036Z,42.40
2018-01-31T08:54:19.401Z,41.60
2018-01-31T08:56:45.990Z,41.60
2018-01-31T08:59:13.339Z,42.30
2018-01-31T09:01:40.074Z,42.10
2018-01-31T09:04:06.676Z,42.20
2018-01-31T09:06:33.433Z,42.80
2018-01-31T09:09:00.779Z,42.30
2018-01-31T09:11:27.399Z,42.20
2018-01-31T09:13:54.075Z,42.00
2018-01-31T09:16:20.637Z,42.20
2018-01-31T09:18:47.262Z,42.00
2018-01-31T09:21:13.871Z,41.30
2018-01-31T09:23:40.465Z,40.90
2018-01-31T09:26:07.078Z,40.40
2018-01-31T09:28:33.695Z,40.30
2018-01-31T09:31:00.283Z,41.40
2018-01-31T09:33:26.902Z,36.40
2018-01-31T09:35:53.494Z,29.70
2018-01-31T09:38:20.194Z,26.90
2018-01-31T09:40:46.798Z,25.30
2018-01-31T09:43:13.495Z,23.30
2018-01-31T09:45:40.081Z,23.90
2018-01-31T09:48:06.727Z,25.90
2018-01-31T09:50:33.398Z,28.40
2018-01-31T09:53:02.451Z,30.30
2018-01-31T09:55:26.608Z,32.50
2018-01-31T09:57:53.974Z,37.20
2018-01-31T10:00:21.088Z,37.10
2018-01-31T10:02:47.711Z,37.30
2018-01-31T10:05:14.330Z,38.30
2018-01-31T10:07:40.986Z,39.10
2018-01-31T10:10:07.597Z,40.60
2018-01-31T10:12:34.323Z,42.20
2018-01-31T10:15:00.886Z,42.80
2018-01-31T10:17:27.490Z,43.60
2018-01-31T10:19:54.854Z,44.00
2018-01-31T10:22:21.601Z,44.00
2018-01-31T10:24:48.236Z,43.50
2018-01-31T10:27:14.819Z,43.50
2018-01-31T10:29:41.425Z,43.10
2018-01-31T10:32:08.025Z,42.10
2018-01-31T10:34:34.628Z,42.30
2018-01-31T10:37:01.234Z,41.40
2018-01-31T10:39:27.818Z,41.50
2018-01-31T10:41:55.181Z,42.50
2018-01-31T10:44:21.826Z,42.50
2018-01-31T10:46:48.469Z,42.80
2018-01-31T10:49:15.160Z,42.70
2018-01-31T10:51:41.754Z,43.10
2018-01-31T10:59:01.771Z,44.00
2018-01-31T11:01:28.355Z,43.60
2018-01-31T11:03:54.957Z,44.40
2018-01-31T11:06:21.548Z,43.60
2018-01-31T11:08:48.191Z,43.50
2018-01-31T11:11:14.777Z,43.50
2018-01-31T11:13:41.395Z,43.60
2018-01-31T11:16:08.002Z,42.90
2018-01-31T11:18:35.327Z,42.80
2018-01-31T11:21:01.946Z,42.80
2018-01-31T11:23:28.509Z,42.70
2018-01-31T11:25:55.110Z,42.60
2018-01-31T11:28:21.690Z,43.50
2018-01-31T11:30:48.338Z,43.30
2018-01-31T11:33:15.043Z,42.90
2018-01-31T11:35:42.415Z,44.80
2018-01-31T11:38:08.994Z,44.70
2018-01-31T11:40:35.619Z,44.60
2018-01-31T11:43:02.355Z,44.60
2018-01-31T11:45:28.918Z,45.00
2018-01-31T11:47:55.533Z,44.70
2018-01-31T11:50:22.189Z,44.20
2018-01-31T11:52:48.797Z,44.20
2018-01-31T11:55:15.438Z,44.60
2018-01-31T11:57:42.116Z,44.60
2018-01-31T12:00:08.795Z,45.20
2018-01-31T12:02:35.306Z,44.60
2018-01-31T12:05:02.684Z,45.60
2018-01-31T12:07:29.257Z,45.50
2018-01-31T12:09:55.808Z,44.80
2018-01-31T12:12:40.766Z,44.90
2018-01-31T12:15:22.503Z,43.40
2018-01-31T12:17:49.170Z,42.90
2018-01-31T12:20:34.034Z,41.90
2018-01-31T12:23:19.069Z,42.00
2018-01-31T12:39:21.358Z,44.10
2018-01-31T12:41:47.554Z,43.40
2018-01-31T12:44:13.782Z,43.40
2018-01-31T12:46:58.781Z,44.30
2018-01-31T12:49:44.070Z,44.00
2018-01-31T12:52:39.599Z,43.60
2018-01-31T12:55:24.639Z,43.60
2018-01-31T12:58:09.736Z,44.10
2018-01-31T13:14:55.039Z,42.90
2018-01-31T13:17:22.422Z,43.50
2018-01-31T13:20:07.392Z,43.80
2018-01-31T13:23:02.021Z,43.30
2018-01-31T13:25:46.862Z,42.90
2018-01-31T13:28:38.555Z,42.60
2018-01-31T13:31:24.144Z,42.50
2018-01-31T13:34:09.134Z,43.30
2018-01-31T13:50:27.964Z,43.10
2018-01-31T13:53:12.997Z,43.10
2018-01-31T13:55:52.635Z,42.90
2018-01-31T13:58:37.483Z,43.40
2018-01-31T14:01:22.312Z,43.60
2018-01-31T14:04:01.218Z,43.60
2018-01-31T14:06:46.574Z,44.00
2018-01-31T14:09:31.343Z,44.20
2018-01-31T14:12:16.378Z,44.00
2018-01-31T14:18:07.128Z,44.10
2018-01-31T14:20:52.059Z,44.10
2018-01-31T14:23:36.994Z,44.30
2018-01-31T14:26:22.274Z,44.90
2018-01-31T14:29:07.912Z,44.80
2018-01-31T14:31:46.527Z,44.70
2018-01-31T14:47:43.839Z,44.80
2018-01-31T14:50:10.015Z,45.00
2018-01-31T14:52:36.210Z,45.60
2018-01-31T14:55:02.373Z,44.80
2018-01-31T14:57:28.556Z,45.00
2018-01-31T14:59:54.738Z,45.60
2018-01-31T15:02:20.886Z,45.60
2018-01-31T15:04:47.840Z,45.80
2018-01-31T15:07:14.030Z,45.70
2018-01-31T15:09:40.189Z,45.30
2018-01-31T15:12:07.094Z,45.60
2018-01-31T15:14:33.319Z,45.50
2018-01-31T15:16:59.505Z,45.40
2018-01-31T15:19:25.708Z,45.40
2018-01-31T15:21:52.639Z,45.50
2018-01-31T15:24:18.833Z,45.50
2018-01-31T15:26:45.052Z,45.70
2018-01-31T15:29:12.229Z,45.60
2018-01-31T15:31:38.372Z,45.60
2018-01-31T15:34:05.334Z,45.80
2018-01-31T15:36:32.302Z,46.20
2018-01-31T15:38:58.489Z,46.20
2018-01-31T15:41:25.431Z,46.10
2018-01-31T15:43:52.716Z,46.70
2018-01-31T15:46:18.946Z,46.40
2018-01-31T15:48:45.171Z,46.50
2018-01-31T15:51:11.367Z,46.70
2018-01-31T15:53:38.294Z,47.00
2018-01-31T15:56:04.486Z,47.00
2018-01-31T15:58:30.720Z,47.20
2018-01-31T16:00:56.942Z,47.20
2018-01-31T16:03:23.152Z,47.40
2018-01-31T16:05:49.319Z,47.70
2018-01-31T16:08:15.739Z,47.60
2018-01-31T16:10:41.937Z,47.70
2018-01-31T16:13:08.112Z,47.40
2018-01-31T16:15:34.332Z,47.70
2018-01-31T16:18:01.605Z,47.90
2018-01-31T16:20:46.395Z,47.90
2018-01-31T16:23:13.711Z,48.30
2018-01-31T16:25:40.332Z,48.90
2018-01-31T16:28:26.152Z,48.70
2018-01-31T16:30:52.724Z,48.70
2018-01-31T16:33:27.335Z,48.20
2018-01-31T16:35:54.691Z,48.50
2018-01-31T16:38:21.923Z,48.60
2018-01-31T16:40:48.437Z,48.50
2018-01-31T16:43:15.653Z,49.00
2018-01-31T16:45:42.907Z,49.00
2018-01-31T16:48:09.459Z,49.10
2018-01-31T16:50:35.979Z,49.20
2018-01-31T16:53:02.583Z,49.30
2018-01-31T16:55:29.081Z,49.60
2018-01-31T16:57:55.672Z,49.60
2018-01-31T17:00:22.196Z,49.70
2018-01-31T17:02:49.451Z,49.70
2018-01-31T17:05:16.031Z,49.60
2018-01-31T17:07:42.539Z,49.80
2018-01-31T17:10:09.074Z,49.80
2018-01-31T17:12:35.595Z,49.90
2018-01-31T17:15:03.161Z,50.10
2018-01-31T17:17:29.795Z,50.00
2018-01-31T17:19:56.476Z,50.10
2018-01-31T17:22:23.225Z,50.20
2018-01-31T17:24:49.867Z,50.30
2018-01-31T17:27:16.553Z,50.50
2018-01-31T17:29:43.261Z,50.40
2018-01-31T17:32:09.895Z,50.60
2018-01-31T17:34:37.259Z,50.60
2018-01-31T17:37:04.687Z,50.60
2018-01-31T17:39:31.325Z,50.60
2018-01-31T17:41:58.010Z,50.60
2018-01-31T17:44:25.340Z,50.30
2018-01-31T17:46:52.703Z,50.30
2018-01-31T17:49:20.074Z,50.30
2018-01-31T17:51:46.704Z,50.30
2018-01-31T17:54:14.294Z,50.20
2018-01-31T17:56:41.076Z,50.20
2018-01-31T17:59:07.723Z,49.90
2018-01-31T18:01:34.428Z,49.90
2018-01-31T18:04:01.030Z,49.70
2018-01-31T18:06:27.749Z,49.80
2018-01-31T18:08:54.387Z,49.60
2018-01-31T18:11:21.762Z,49.50
2018-01-31T18:13:48.419Z,49.40
2018-01-31T18:16:15.130Z,49.80
2018-01-31T18:18:42.567Z,50.20
2018-01-31T18:21:10.043Z,50.20
2018-01-31T18:23:36.736Z,50.10
2018-01-31T18:26:03.434Z,50.20
2018-01-31T18:28:30.076Z,50.10
2018-01-31T18:30:56.681Z,50.30
2018-01-31T18:33:24.040Z,51.50
2018-01-31T18:35:51.477Z,50.20
2018-01-31T18:38:18.173Z,50.00
2018-01-31T18:40:44.803Z,50.10
2018-01-31T18:43:11.399Z,49.50
2018-01-31T18:45:38.054Z,50.20
2018-01-31T18:48:04.769Z,50.20
2018-01-31T18:50:32.168Z,51.20
2018-01-31T18:52:58.806Z,51.10
2018-01-31T18:55:25.584Z,51.80
2018-01-31T18:57:52.315Z,52.00
2018-01-31T19:00:18.942Z,52.60
2018-01-31T19:02:45.568Z,52.90
2018-01-31T19:05:12.268Z,52.90
2018-01-31T19:07:39.624Z,51.90
2018-01-31T19:10:06.282Z,51.90
2018-01-31T19:12:33.661Z,51.80
2018-01-31T19:15:00.302Z,51.10
2018-01-31T19:17:27.042Z,50.70
2018-01-31T19:19:53.646Z,50.00
2018-01-31T19:22:20.318Z,50.50
2018-01-31T19:24:46.990Z,50.80
2018-01-31T19:27:13.638Z,51.00
2018-01-31T19:29:40.961Z,51.30
2018-01-31T19:32:07.605Z,51.20
2018-01-31T19:34:34.220Z,51.50
2018-01-31T19:37:00.977Z,51.20
2018-01-31T19:39:27.603Z,51.30
2018-01-31T19:41:54.305Z,51.10
2018-01-31T19:44:21.095Z,51.70
2018-01-31T19:46:47.678Z,51.90
2018-01-31T19:49:14.495Z,52.70
2018-01-31T19:51:41.070Z,52.90
2018-01-31T19:54:07.710Z,53.70
2018-01-31T19:56:34.362Z,54.00
2018-01-31T19:59:04.540Z,54.50
2018-01-31T20:01:31.240Z,55.10
2018-01-31T20:03:57.854Z,55.70
2018-01-31T20:06:24.500Z,56.10
2018-01-31T20:08:51.132Z,56.10
2018-01-31T20:11:17.925Z,55.90
2018-01-31T20:13:45.273Z,56.20
2018-01-31T20:16:11.958Z,56.30
2018-01-31T20:18:38.629Z,56.40
2018-01-31T20:21:05.224Z,56.90
2018-01-31T20:23:31.856Z,57.00
2018-01-31T20:25:58.525Z,56.90
2018-01-31T20:28:25.197Z,57.10
2018-01-31T20:30:52.630Z,57.40
2018-01-31T20:33:19.284Z,57.30
2018-01-31T20:35:46.658Z,57.30
2018-01-31T20:38:13.291Z,57.30
2018-01-31T20:40:40.839Z,57.10
2018-01-31T20:43:08.240Z,58.10
2018-01-31T20:45:34.942Z,58.10
2018-01-31T20:48:02.308Z,57.60
2018-01-31T20:50:28.948Z,57.50
2018-01-31T20:52:55.617Z,58.50
2018-01-31T20:55:22.255Z,59.80
2018-01-31T20:57:48.891Z,59.90
2018-01-31T21:00:15.562Z,59.00
2018-01-31T21:02:42.155Z,58.80
2018-01-31T21:05:08.814Z,59.20
2018-01-31T21:07:35.455Z,59.70
2018-01-31T21:10:02.860Z,60.10
2018-01-31T21:12:29.525Z,60.10
2018-01-31T21:14:56.222Z,60.60
2018-01-31T21:17:22.858Z,60.60
2018-01-31T21:19:50.238Z,61.30
2018-01-31T21:22:16.882Z,60.60
2018-01-31T21:24:45.022Z,60.90
2018-01-31T21:27:12.492Z,60.90
2018-01-31T21:29:39.105Z,60.90
2018-01-31T21:32:05.784Z,60.60
2018-01-31T21:34:32.446Z,61.20
2018-01-31T21:36:59.067Z,61.60
2018-01-31T21:39:25.740Z,62.00
2018-01-31T21:41:52.338Z,61.80
2018-01-31T21:44:19.695Z,61.80
2018-01-31T21:46:46.291Z,61.80
2018-01-31T21:49:12.869Z,61.20
2018-01-31T21:51:39.518Z,61.20
2018-01-31T21:54:06.169Z,61.20
2018-01-31T21:56:32.842Z,61.00
2018-01-31T21:58:59.471Z,60.70
2018-01-31T22:01:26.072Z,61.00
2018-01-31T22:03:52.768Z,61.10
2018-01-31T22:06:19.380Z,61.10
2018-01-31T22:08:45.975Z,61.10
2018-01-31T22:11:12.607Z,61.60
2018-01-31T22:13:39.218Z,61.50
2018-01-31T22:16:05.858Z,62.10
2018-01-31T22:18:32.438Z,62.20
2018-01-31T22:20:59.041Z,62.50
2018-01-31T22:23:25.718Z,62.60
2018-01-31T22:25:52.315Z,62.70
2018-01-31T22:28:19.655Z,62.30
2018-01-31T22:30:46.319Z,62.30
2018-01-31T22:33:13.664Z,62.30
2018-01-31T22:35:40.279Z,62.20
2018-01-31T22:38:06.928Z,62.60
2018-01-31T22:40:33.509Z,62.10
2018-01-31T22:43:00.120Z,63.00
2018-01-31T22:45:26.772Z,62.60
2018-01-31T22:47:53.391Z,62.30
2018-01-31T22:50:20.775Z,62.30
2018-01-31T22:52:47.401Z,62.30
2018-01-31T22:55:14.913Z,63.30
2018-01-31T22:57:41.548Z,63.90
2018-01-31T23:00:08.180Z,63.30
2018-01-31T23:02:35.574Z,63.70
2018-01-31T23:05:02.206Z,63.70
2018-01-31T23:07:28.937Z,63.10
2018-01-31T23:09:55.575Z,63.10
2018-01-31T23:12:23.663Z,63.50
2018-01-31T23:14:52.392Z,63.40
2018-01-31T23:17:25.106Z,64.00
2018-01-31T23:19:51.751Z,63.90
2018-01-31T23:22:19.099Z,64.30
2018-01-31T23:24:46.486Z,64.40
2018-01-31T23:27:13.101Z,64.40
2018-01-31T23:29:39.787Z,64.20
2018-01-31T23:32:06.434Z,64.60
2018-01-31T23:34:33.190Z,64.60
2018-01-31T23:36:59.778Z,64.60
2018-01-31T23:39:26.388Z,64.20
2018-01-31T23:41:53.747Z,65.00
2018-01-31T23:44:21.077Z,64.60
2018-01-31T23:46:47.781Z,64.50
2018-01-31T23:49:14.390Z,64.20
2018-01-31T23:51:40.970Z,64.70
2018-01-31T23:54:07.565Z,64.50
2018-01-31T23:56:34.928Z,64.70
2018-01-31T23:59:01.538Z,64.70
